Terminal Aerodrome Forecast
Issued by NWS Cleveland, OH

Home | Current Version | Previous Version | Text Only | Print | Product List | Glossary Off
Versions: 1 2 3 4 5 6 7 8 9 10 11 12 13 14 15 16 17 18

000
FTUS41 KCLE 232330
TAFYNG
TAF
KYNG 232330Z 2400/2424 13010KT P6SM SCT060 OVC200
     FM240400 12010KT 6SM -SHRA OVC040
      TEMPO 2404/2408 5SM -SHRA BKN025
     FM240800 12010KT 5SM -SHRA OVC025
     FM241700 13011KT 3SM -SHRA OVC015=

USA.gov is the U.S. government's official web portal to all federal, state and local government web resources and services.